sensor_id;sensor_type;location;lat;lon;timestamp;P1;durP1;ratioP1;P2;durP2;ratioP2
57337;SDS011;43173;50.980;18.204;2023-07-13T00:02:06;11.40;;;7.00;;
57337;SDS011;43173;50.980;18.204;2023-07-13T00:04:32;8.40;;;6.70;;
57337;SDS011;43173;50.980;18.204;2023-07-13T00:06:58;9.40;;;6.30;;
57337;SDS011;43173;50.980;18.204;2023-07-13T00:09:24;10.30;;;6.90;;
57337;SDS011;43173;50.980;18.204;2023-07-13T00:11:54;8.50;;;6.70;;
57337;SDS011;43173;50.980;18.204;2023-07-13T00:14:20;8.00;;;6.90;;
57337;SDS011;43173;50.980;18.204;2023-07-13T00:16:46;9.50;;;7.30;;
57337;SDS011;43173;50.980;18.204;2023-07-13T00:19:12;8.00;;;6.50;;
57337;SDS011;43173;50.980;18.204;2023-07-13T00:21:39;8.70;;;7.80;;
57337;SDS011;43173;50.980;18.204;2023-07-13T00:24:06;8.20;;;7.10;;
57337;SDS011;43173;50.980;18.204;2023-07-13T00:26:32;9.00;;;6.90;;
57337;SDS011;43173;50.980;18.204;2023-07-13T00:28:59;9.30;;;7.10;;
57337;SDS011;43173;50.980;18.204;2023-07-13T00:31:24;9.80;;;7.70;;
57337;SDS011;43173;50.980;18.204;2023-07-13T00:33:50;9.40;;;7.40;;
57337;SDS011;43173;50.980;18.204;2023-07-13T00:36:16;8.20;;;7.30;;
57337;SDS011;43173;50.980;18.204;2023-07-13T00:38:42;11.00;;;7.80;;
57337;SDS011;43173;50.980;18.204;2023-07-13T00:41:08;11.30;;;7.40;;
57337;SDS011;43173;50.980;18.204;2023-07-13T00:43:34;8.20;;;7.20;;
57337;SDS011;43173;50.980;18.204;2023-07-13T00:48:48;9.30;;;7.10;;
57337;SDS011;43173;50.980;18.204;2023-07-13T00:51:15;10.50;;;7.10;;
57337;SDS011;43173;50.980;18.204;2023-07-13T00:53:43;8.40;;;6.80;;
57337;SDS011;43173;50.980;18.204;2023-07-13T00:56:09;11.10;;;7.30;;
57337;SDS011;43173;50.980;18.204;2023-07-13T00:58:35;10.30;;;7.10;;
57337;SDS011;43173;50.980;18.204;2023-07-13T01:01:01;12.90;;;6.80;;
57337;SDS011;43173;50.980;18.204;2023-07-13T01:03:26;10.00;;;6.80;;
57337;SDS011;43173;50.980;18.204;2023-07-13T01:05:52;11.00;;;7.30;;
57337;SDS011;43173;50.980;18.204;2023-07-13T01:08:20;9.70;;;7.10;;
57337;SDS011;43173;50.980;18.204;2023-07-13T01:13:28;10.30;;;7.70;;
57337;SDS011;43173;50.980;18.204;2023-07-13T01:15:55;8.00;;;6.50;;
57337;SDS011;43173;50.980;18.204;2023-07-13T01:18:23;10.20;;;7.20;;
57337;SDS011;43173;50.980;18.204;2023-07-13T01:23:32;11.60;;;7.80;;
57337;SDS011;43173;50.980;18.204;2023-07-13T01:25:58;12.60;;;7.70;;
57337;SDS011;43173;50.980;18.204;2023-07-13T01:28:25;12.00;;;7.80;;
57337;SDS011;43173;50.980;18.204;2023-07-13T01:30:53;11.80;;;8.40;;
57337;SDS011;43173;50.980;18.204;2023-07-13T01:33:19;12.20;;;7.60;;
57337;SDS011;43173;50.980;18.204;2023-07-13T01:35:45;10.30;;;6.90;;
57337;SDS011;43173;50.980;18.204;2023-07-13T01:38:13;10.10;;;7.30;;
57337;SDS011;43173;50.980;18.204;2023-07-13T01:40:40;11.10;;;7.80;;
57337;SDS011;43173;50.980;18.204;2023-07-13T01:43:06;11.40;;;8.40;;
57337;SDS011;43173;50.980;18.204;2023-07-13T01:45:31;12.40;;;9.80;;
57337;SDS011;43173;50.980;18.204;2023-07-13T01:47:57;13.10;;;9.30;;
57337;SDS011;43173;50.980;18.204;2023-07-13T01:50:24;13.70;;;10.00;;
57337;SDS011;43173;50.980;18.204;2023-07-13T01:52:50;13.20;;;9.60;;
57337;SDS011;43173;50.980;18.204;2023-07-13T01:55:16;11.40;;;8.80;;
57337;SDS011;43173;50.980;18.204;2023-07-13T01:57:41;13.50;;;8.70;;
57337;SDS011;43173;50.980;18.204;2023-07-13T02:00:08;10.90;;;9.20;;
57337;SDS011;43173;50.980;18.204;2023-07-13T02:02:35;15.90;;;10.60;;
57337;SDS011;43173;50.980;18.204;2023-07-13T02:05:00;16.80;;;10.90;;
57337;SDS011;43173;50.980;18.204;2023-07-13T02:07:26;14.30;;;10.90;;
57337;SDS011;43173;50.980;18.204;2023-07-13T02:09:51;15.70;;;11.00;;
57337;SDS011;43173;50.980;18.204;2023-07-13T02:12:17;13.20;;;11.00;;
57337;SDS011;43173;50.980;18.204;2023-07-13T02:14:42;18.90;;;11.20;;
57337;SDS011;43173;50.980;18.204;2023-07-13T02:17:09;16.20;;;12.00;;
57337;SDS011;43173;50.980;18.204;2023-07-13T02:19:35;16.00;;;11.80;;
57337;SDS011;43173;50.980;18.204;2023-07-13T02:22:02;13.70;;;11.10;;
57337;SDS011;43173;50.980;18.204;2023-07-13T02:24:28;17.60;;;11.90;;
57337;SDS011;43173;50.980;18.204;2023-07-13T02:26:54;19.00;;;12.70;;
57337;SDS011;43173;50.980;18.204;2023-07-13T02:29:19;17.80;;;12.20;;
57337;SDS011;43173;50.980;18.204;2023-07-13T02:31:45;18.30;;;12.90;;
57337;SDS011;43173;50.980;18.204;2023-07-13T02:34:11;18.00;;;12.90;;
57337;SDS011;43173;50.980;18.204;2023-07-13T02:36:36;23.00;;;13.30;;
57337;SDS011;43173;50.980;18.204;2023-07-13T02:39:03;16.90;;;12.90;;
57337;SDS011;43173;50.980;18.204;2023-07-13T02:41:31;19.50;;;13.00;;
57337;SDS011;43173;50.980;18.204;2023-07-13T02:43:58;20.70;;;15.00;;
57337;SDS011;43173;50.980;18.204;2023-07-13T02:48:57;19.70;;;13.70;;
57337;SDS011;43173;50.980;18.204;2023-07-13T02:51:23;22.60;;;14.40;;
57337;SDS011;43173;50.980;18.204;2023-07-13T02:53:49;22.20;;;14.50;;
57337;SDS011;43173;50.980;18.204;2023-07-13T02:56:14;20.90;;;15.50;;
57337;SDS011;43173;50.980;18.204;2023-07-13T02:58:40;21.80;;;15.40;;
57337;SDS011;43173;50.980;18.204;2023-07-13T03:01:07;22.30;;;15.00;;
57337;SDS011;43173;50.980;18.204;2023-07-13T03:03:34;24.30;;;15.00;;
57337;SDS011;43173;50.980;18.204;2023-07-13T03:06:00;19.80;;;14.90;;
57337;SDS011;43173;50.980;18.204;2023-07-13T03:08:27;18.70;;;13.90;;
57337;SDS011;43173;50.980;18.204;2023-07-13T03:11:03;22.40;;;14.10;;
57337;SDS011;43173;50.980;18.204;2023-07-13T03:13:30;21.80;;;14.90;;
57337;SDS011;43173;50.980;18.204;2023-07-13T03:15:56;19.80;;;15.10;;
57337;SDS011;43173;50.980;18.204;2023-07-13T03:18:21;20.30;;;15.10;;
57337;SDS011;43173;50.980;18.204;2023-07-13T03:20:50;24.60;;;16.00;;
57337;SDS011;43173;50.980;18.204;2023-07-13T03:23:16;23.40;;;16.50;;
57337;SDS011;43173;50.980;18.204;2023-07-13T03:25:42;23.30;;;16.70;;
57337;SDS011;43173;50.980;18.204;2023-07-13T03:28:08;26.40;;;17.10;;
57337;SDS011;43173;50.980;18.204;2023-07-13T03:30:33;25.00;;;17.10;;
57337;SDS011;43173;50.980;18.204;2023-07-13T03:32:59;27.00;;;17.00;;
57337;SDS011;43173;50.980;18.204;2023-07-13T03:35:24;29.30;;;17.00;;
57337;SDS011;43173;50.980;18.204;2023-07-13T03:37:50;23.70;;;16.60;;
57337;SDS011;43173;50.980;18.204;2023-07-13T03:40:16;23.00;;;16.20;;
57337;SDS011;43173;50.980;18.204;2023-07-13T03:42:42;24.50;;;16.90;;
57337;SDS011;43173;50.980;18.204;2023-07-13T03:45:07;23.20;;;16.50;;
57337;SDS011;43173;50.980;18.204;2023-07-13T03:47:33;25.60;;;16.50;;
57337;SDS011;43173;50.980;18.204;2023-07-13T03:49:59;20.00;;;15.00;;
57337;SDS011;43173;50.980;18.204;2023-07-13T03:52:24;19.80;;;16.30;;
57337;SDS011;43173;50.980;18.204;2023-07-13T03:54:50;23.10;;;16.60;;
57337;SDS011;43173;50.980;18.204;2023-07-13T03:57:15;21.40;;;17.80;;
57337;SDS011;43173;50.980;18.204;2023-07-13T03:59:41;25.50;;;16.70;;
57337;SDS011;43173;50.980;18.204;2023-07-13T04:02:07;18.20;;;16.10;;
57337;SDS011;43173;50.980;18.204;2023-07-13T04:04:33;26.20;;;17.10;;
57337;SDS011;43173;50.980;18.204;2023-07-13T04:06:58;25.20;;;17.20;;
57337;SDS011;43173;50.980;18.204;2023-07-13T04:09:24;21.10;;;15.80;;
57337;SDS011;43173;50.980;18.204;2023-07-13T04:11:50;21.40;;;14.60;;
57337;SDS011;43173;50.980;18.204;2023-07-13T04:14:16;21.20;;;15.50;;
57337;SDS011;43173;50.980;18.204;2023-07-13T04:16:42;19.30;;;15.20;;
57337;SDS011;43173;50.980;18.204;2023-07-13T04:19:09;15.40;;;13.50;;
57337;SDS011;43173;50.980;18.204;2023-07-13T04:21:35;17.10;;;12.70;;
57337;SDS011;43173;50.980;18.204;2023-07-13T04:24:02;16.30;;;11.00;;
57337;SDS011;43173;50.980;18.204;2023-07-13T04:26:28;13.70;;;11.70;;
57337;SDS011;43173;50.980;18.204;2023-07-13T04:28:54;13.20;;;10.30;;
57337;SDS011;43173;50.980;18.204;2023-07-13T04:31:20;13.90;;;10.70;;
57337;SDS011;43173;50.980;18.204;2023-07-13T04:33:47;12.50;;;10.80;;
57337;SDS011;43173;50.980;18.204;2023-07-13T04:36:14;15.00;;;9.80;;
57337;SDS011;43173;50.980;18.204;2023-07-13T04:38:41;12.50;;;9.20;;
57337;SDS011;43173;50.980;18.204;2023-07-13T04:41:07;14.10;;;9.60;;
57337;SDS011;43173;50.980;18.204;2023-07-13T04:43:34;11.80;;;8.60;;
57337;SDS011;43173;50.980;18.204;2023-07-13T04:46:07;12.00;;;8.50;;
57337;SDS011;43173;50.980;18.204;2023-07-13T04:48:33;9.50;;;8.50;;
57337;SDS011;43173;50.980;18.204;2023-07-13T04:50:59;10.60;;;8.80;;
57337;SDS011;43173;50.980;18.204;2023-07-13T04:53:25;13.40;;;9.10;;
57337;SDS011;43173;50.980;18.204;2023-07-13T04:55:52;13.30;;;9.20;;
57337;SDS011;43173;50.980;18.204;2023-07-13T04:58:18;17.30;;;9.70;;
57337;SDS011;43173;50.980;18.204;2023-07-13T05:00:43;12.80;;;9.30;;
57337;SDS011;43173;50.980;18.204;2023-07-13T05:03:09;14.70;;;9.30;;
57337;SDS011;43173;50.980;18.204;2023-07-13T05:05:35;14.60;;;9.40;;
57337;SDS011;43173;50.980;18.204;2023-07-13T05:08:01;14.40;;;9.10;;
57337;SDS011;43173;50.980;18.204;2023-07-13T05:10:27;14.80;;;8.60;;
57337;SDS011;43173;50.980;18.204;2023-07-13T05:12:53;14.40;;;9.30;;
57337;SDS011;43173;50.980;18.204;2023-07-13T05:15:20;13.30;;;9.70;;
57337;SDS011;43173;50.980;18.204;2023-07-13T05:17:47;15.20;;;9.00;;
57337;SDS011;43173;50.980;18.204;2023-07-13T05:20:14;12.20;;;9.20;;
57337;SDS011;43173;50.980;18.204;2023-07-13T05:22:40;13.30;;;10.00;;
57337;SDS011;43173;50.980;18.204;2023-07-13T05:25:07;15.60;;;10.00;;
57337;SDS011;43173;50.980;18.204;2023-07-13T05:27:33;16.80;;;10.20;;
57337;SDS011;43173;50.980;18.204;2023-07-13T05:30:00;17.10;;;10.30;;
57337;SDS011;43173;50.980;18.204;2023-07-13T05:32:26;20.00;;;11.50;;
57337;SDS011;43173;50.980;18.204;2023-07-13T05:34:52;16.20;;;11.10;;
57337;SDS011;43173;50.980;18.204;2023-07-13T05:37:17;18.30;;;11.90;;
57337;SDS011;43173;50.980;18.204;2023-07-13T05:39:43;18.40;;;12.40;;
57337;SDS011;43173;50.980;18.204;2023-07-13T05:42:09;14.10;;;11.60;;
57337;SDS011;43173;50.980;18.204;2023-07-13T05:44:35;14.00;;;11.80;;
57337;SDS011;43173;50.980;18.204;2023-07-13T05:47:01;16.30;;;12.40;;
57337;SDS011;43173;50.980;18.204;2023-07-13T05:49:26;17.10;;;11.70;;
57337;SDS011;43173;50.980;18.204;2023-07-13T05:51:52;21.50;;;12.10;;
57337;SDS011;43173;50.980;18.204;2023-07-13T05:54:18;16.20;;;11.20;;
57337;SDS011;43173;50.980;18.204;2023-07-13T05:56:43;14.50;;;11.20;;
57337;SDS011;43173;50.980;18.204;2023-07-13T05:59:09;16.70;;;13.30;;
57337;SDS011;43173;50.980;18.204;2023-07-13T06:01:34;14.30;;;12.30;;
57337;SDS011;43173;50.980;18.204;2023-07-13T06:04:00;16.00;;;12.80;;
57337;SDS011;43173;50.980;18.204;2023-07-13T06:06:26;17.40;;;15.60;;
57337;SDS011;43173;50.980;18.204;2023-07-13T06:08:51;16.10;;;13.00;;
57337;SDS011;43173;50.980;18.204;2023-07-13T06:11:18;13.80;;;12.20;;
57337;SDS011;43173;50.980;18.204;2023-07-13T06:13:45;15.40;;;9.30;;
57337;SDS011;43173;50.980;18.204;2023-07-13T06:16:11;11.10;;;8.10;;
57337;SDS011;43173;50.980;18.204;2023-07-13T06:18:40;11.90;;;8.00;;
57337;SDS011;43173;50.980;18.204;2023-07-13T06:21:09;7.70;;;5.80;;
57337;SDS011;43173;50.980;18.204;2023-07-13T06:23:37;13.40;;;5.70;;
57337;SDS011;43173;50.980;18.204;2023-07-13T06:26:03;11.90;;;6.10;;
57337;SDS011;43173;50.980;18.204;2023-07-13T06:28:29;5.90;;;4.60;;
57337;SDS011;43173;50.980;18.204;2023-07-13T06:30:57;7.20;;;4.30;;
57337;SDS011;43173;50.980;18.204;2023-07-13T06:33:23;6.40;;;4.10;;
57337;SDS011;43173;50.980;18.204;2023-07-13T06:35:49;7.00;;;4.40;;
57337;SDS011;43173;50.980;18.204;2023-07-13T06:38:15;6.30;;;4.80;;
57337;SDS011;43173;50.980;18.204;2023-07-13T06:40:41;5.70;;;4.40;;
57337;SDS011;43173;50.980;18.204;2023-07-13T06:43:06;7.60;;;4.60;;
57337;SDS011;43173;50.980;18.204;2023-07-13T06:45:39;7.50;;;4.00;;
57337;SDS011;43173;50.980;18.204;2023-07-13T06:48:06;7.30;;;3.70;;
57337;SDS011;43173;50.980;18.204;2023-07-13T06:50:32;5.20;;;3.30;;
57337;SDS011;43173;50.980;18.204;2023-07-13T06:52:59;3.90;;;3.20;;
57337;SDS011;43173;50.980;18.204;2023-07-13T06:55:25;6.30;;;3.30;;
57337;SDS011;43173;50.980;18.204;2023-07-13T06:57:51;5.10;;;3.10;;
57337;SDS011;43173;50.980;18.204;2023-07-13T07:00:16;6.60;;;3.10;;
57337;SDS011;43173;50.980;18.204;2023-07-13T07:02:42;4.40;;;2.90;;
57337;SDS011;43173;50.980;18.204;2023-07-13T07:05:08;4.50;;;2.70;;
57337;SDS011;43173;50.980;18.204;2023-07-13T07:07:34;5.10;;;2.50;;
57337;SDS011;43173;50.980;18.204;2023-07-13T07:09:59;4.20;;;2.30;;
57337;SDS011;43173;50.980;18.204;2023-07-13T07:12:25;5.00;;;2.50;;
57337;SDS011;43173;50.980;18.204;2023-07-13T07:14:51;2.80;;;2.30;;
57337;SDS011;43173;50.980;18.204;2023-07-13T07:17:16;4.60;;;2.70;;
57337;SDS011;43173;50.980;18.204;2023-07-13T07:19:42;2.80;;;2.20;;
57337;SDS011;43173;50.980;18.204;2023-07-13T07:22:08;3.90;;;2.50;;
57337;SDS011;43173;50.980;18.204;2023-07-13T07:24:33;4.60;;;2.40;;
57337;SDS011;43173;50.980;18.204;2023-07-13T07:26:59;3.10;;;2.40;;
57337;SDS011;43173;50.980;18.204;2023-07-13T07:29:24;3.40;;;2.10;;
57337;SDS011;43173;50.980;18.204;2023-07-13T07:31:52;5.70;;;2.80;;
57337;SDS011;43173;50.980;18.204;2023-07-13T07:34:18;4.20;;;2.60;;
57337;SDS011;43173;50.980;18.204;2023-07-13T07:36:44;4.00;;;2.50;;
57337;SDS011;43173;50.980;18.204;2023-07-13T07:39:09;5.00;;;2.90;;
57337;SDS011;43173;50.980;18.204;2023-07-13T07:41:35;4.60;;;2.60;;
57337;SDS011;43173;50.980;18.204;2023-07-13T07:44:00;3.90;;;2.10;;
57337;SDS011;43173;50.980;18.204;2023-07-13T07:46:27;3.80;;;2.30;;
57337;SDS011;43173;50.980;18.204;2023-07-13T07:48:53;6.60;;;2.10;;
57337;SDS011;43173;50.980;18.204;2023-07-13T07:51:20;3.10;;;2.00;;
57337;SDS011;43173;50.980;18.204;2023-07-13T07:53:46;5.00;;;2.30;;
57337;SDS011;43173;50.980;18.204;2023-07-13T07:56:12;4.00;;;2.00;;
57337;SDS011;43173;50.980;18.204;2023-07-13T07:58:38;3.70;;;2.10;;
57337;SDS011;43173;50.980;18.204;2023-07-13T08:01:06;3.80;;;2.20;;
57337;SDS011;43173;50.980;18.204;2023-07-13T08:03:32;5.10;;;2.40;;
57337;SDS011;43173;50.980;18.204;2023-07-13T08:05:58;2.40;;;2.10;;
57337;SDS011;43173;50.980;18.204;2023-07-13T08:08:23;3.50;;;2.30;;
57337;SDS011;43173;50.980;18.204;2023-07-13T08:10:49;4.80;;;2.60;;
57337;SDS011;43173;50.980;18.204;2023-07-13T08:13:15;9.80;;;3.00;;
57337;SDS011;43173;50.980;18.204;2023-07-13T08:15:41;6.10;;;2.90;;
57337;SDS011;43173;50.980;18.204;2023-07-13T08:18:06;6.50;;;2.90;;
57337;SDS011;43173;50.980;18.204;2023-07-13T08:20:38;8.10;;;2.80;;
57337;SDS011;43173;50.980;18.204;2023-07-13T08:23:04;5.00;;;2.80;;
57337;SDS011;43173;50.980;18.204;2023-07-13T08:25:30;5.40;;;2.60;;
57337;SDS011;43173;50.980;18.204;2023-07-13T08:27:56;4.60;;;2.70;;
57337;SDS011;43173;50.980;18.204;2023-07-13T08:30:21;5.20;;;2.60;;
57337;SDS011;43173;50.980;18.204;2023-07-13T08:32:48;3.20;;;2.60;;
57337;SDS011;43173;50.980;18.204;2023-07-13T08:35:14;5.00;;;2.50;;
57337;SDS011;43173;50.980;18.204;2023-07-13T08:37:41;5.20;;;2.80;;
57337;SDS011;43173;50.980;18.204;2023-07-13T08:40:10;5.10;;;3.40;;
57337;SDS011;43173;50.980;18.204;2023-07-13T08:42:44;5.50;;;3.30;;
57337;SDS011;43173;50.980;18.204;2023-07-13T08:51:00;5.10;;;3.40;;
57337;SDS011;43173;50.980;18.204;2023-07-13T08:53:40;6.40;;;3.90;;
57337;SDS011;43173;50.980;18.204;2023-07-13T08:56:11;7.20;;;3.40;;
57337;SDS011;43173;50.980;18.204;2023-07-13T08:58:42;6.20;;;3.90;;
57337;SDS011;43173;50.980;18.204;2023-07-13T09:06:27;5.90;;;4.20;;
57337;SDS011;43173;50.980;18.204;2023-07-13T09:09:17;4.80;;;4.20;;
57337;SDS011;43173;50.980;18.204;2023-07-13T09:17:24;7.80;;;4.40;;
57337;SDS011;43173;50.980;18.204;2023-07-13T09:22:46;5.30;;;3.70;;
57337;SDS011;43173;50.980;18.204;2023-07-13T09:27:43;5.50;;;3.50;;
57337;SDS011;43173;50.980;18.204;2023-07-13T09:32:39;5.20;;;3.10;;
57337;SDS011;43173;50.980;18.204;2023-07-13T09:35:10;5.40;;;3.10;;
57337;SDS011;43173;50.980;18.204;2023-07-13T09:37:37;5.50;;;3.00;;
57337;SDS011;43173;50.980;18.204;2023-07-13T09:40:23;7.80;;;3.10;;
57337;SDS011;43173;50.980;18.204;2023-07-13T09:42:52;4.00;;;2.70;;
57337;SDS011;43173;50.980;18.204;2023-07-13T09:48:05;3.90;;;3.00;;
57337;SDS011;43173;50.980;18.204;2023-07-13T09:50:35;4.00;;;2.80;;
57337;SDS011;43173;50.980;18.204;2023-07-13T09:53:02;4.40;;;2.70;;
57337;SDS011;43173;50.980;18.204;2023-07-13T09:58:04;6.30;;;2.80;;
57337;SDS011;43173;50.980;18.204;2023-07-13T10:00:35;6.30;;;2.90;;
57337;SDS011;43173;50.980;18.204;2023-07-13T10:05:42;3.10;;;2.50;;
57337;SDS011;43173;50.980;18.204;2023-07-13T10:16:30;3.40;;;2.30;;
57337;SDS011;43173;50.980;18.204;2023-07-13T10:21:32;4.30;;;2.40;;
57337;SDS011;43173;50.980;18.204;2023-07-13T10:26:46;4.80;;;2.10;;
57337;SDS011;43173;50.980;18.204;2023-07-13T10:29:16;3.10;;;2.00;;
57337;SDS011;43173;50.980;18.204;2023-07-13T10:31:44;4.70;;;2.50;;
57337;SDS011;43173;50.980;18.204;2023-07-13T10:34:11;3.80;;;2.10;;
57337;SDS011;43173;50.980;18.204;2023-07-13T10:36:42;5.30;;;2.20;;
57337;SDS011;43173;50.980;18.204;2023-07-13T10:39:19;2.20;;;1.80;;
57337;SDS011;43173;50.980;18.204;2023-07-13T10:41:49;3.20;;;1.80;;
57337;SDS011;43173;50.980;18.204;2023-07-13T10:44:24;4.00;;;1.90;;
57337;SDS011;43173;50.980;18.204;2023-07-13T10:46:55;3.20;;;1.90;;
57337;SDS011;43173;50.980;18.204;2023-07-13T10:49:26;3.20;;;1.90;;
57337;SDS011;43173;50.980;18.204;2023-07-13T10:51:53;7.00;;;2.20;;
57337;SDS011;43173;50.980;18.204;2023-07-13T10:54:26;3.00;;;2.20;;
57337;SDS011;43173;50.980;18.204;2023-07-13T10:57:06;5.10;;;2.30;;
57337;SDS011;43173;50.980;18.204;2023-07-13T10:59:45;5.00;;;2.40;;
57337;SDS011;43173;50.980;18.204;2023-07-13T11:02:33;3.10;;;2.60;;
57337;SDS011;43173;50.980;18.204;2023-07-13T11:04:59;3.40;;;2.00;;
57337;SDS011;43173;50.980;18.204;2023-07-13T11:21:26;6.70;;;3.00;;
57337;SDS011;43173;50.980;18.204;2023-07-13T11:23:54;6.90;;;2.80;;
57337;SDS011;43173;50.980;18.204;2023-07-13T11:31:39;4.30;;;2.30;;
57337;SDS011;43173;50.980;18.204;2023-07-13T11:34:06;3.60;;;2.00;;
57337;SDS011;43173;50.980;18.204;2023-07-13T11:36:38;3.00;;;2.10;;
57337;SDS011;43173;50.980;18.204;2023-07-13T11:41:55;3.70;;;2.40;;
57337;SDS011;43173;50.980;18.204;2023-07-13T11:44:23;3.80;;;2.00;;
57337;SDS011;43173;50.980;18.204;2023-07-13T11:46:51;3.80;;;1.70;;
57337;SDS011;43173;50.980;18.204;2023-07-13T11:49:24;3.50;;;2.00;;
57337;SDS011;43173;50.980;18.204;2023-07-13T11:51:52;2.30;;;1.80;;
57337;SDS011;43173;50.980;18.204;2023-07-13T11:56:54;1.60;;;1.40;;
57337;SDS011;43173;50.980;18.204;2023-07-13T11:59:22;5.60;;;1.70;;
57337;SDS011;43173;50.980;18.204;2023-07-13T12:01:50;2.50;;;1.60;;
57337;SDS011;43173;50.980;18.204;2023-07-13T12:06:47;1.70;;;1.50;;
57337;SDS011;43173;50.980;18.204;2023-07-13T12:09:29;2.00;;;1.80;;
57337;SDS011;43173;50.980;18.204;2023-07-13T12:11:56;2.70;;;1.70;;
57337;SDS011;43173;50.980;18.204;2023-07-13T12:14:25;4.80;;;1.80;;
57337;SDS011;43173;50.980;18.204;2023-07-13T12:16:52;3.20;;;1.80;;
57337;SDS011;43173;50.980;18.204;2023-07-13T12:22:00;2.40;;;1.30;;
57337;SDS011;43173;50.980;18.204;2023-07-13T12:24:25;1.90;;;1.50;;
57337;SDS011;43173;50.980;18.204;2023-07-13T12:26:53;4.10;;;1.70;;
57337;SDS011;43173;50.980;18.204;2023-07-13T12:29:27;2.80;;;1.50;;
57337;SDS011;43173;50.980;18.204;2023-07-13T12:31:52;1.70;;;1.60;;
57337;SDS011;43173;50.980;18.204;2023-07-13T12:34:19;1.80;;;1.50;;
57337;SDS011;43173;50.980;18.204;2023-07-13T12:44:57;3.40;;;1.80;;
57337;SDS011;43173;50.980;18.204;2023-07-13T12:47:25;5.60;;;1.70;;
57337;SDS011;43173;50.980;18.204;2023-07-13T12:49:55;1.70;;;1.50;;
57337;SDS011;43173;50.980;18.204;2023-07-13T12:52:24;2.50;;;1.50;;
57337;SDS011;43173;50.980;18.204;2023-07-13T12:55:03;2.20;;;1.30;;
57337;SDS011;43173;50.980;18.204;2023-07-13T12:57:31;2.90;;;1.30;;
57337;SDS011;43173;50.980;18.204;2023-07-13T12:59:57;2.90;;;1.50;;
57337;SDS011;43173;50.980;18.204;2023-07-13T13:02:27;2.60;;;1.40;;
57337;SDS011;43173;50.980;18.204;2023-07-13T13:04:55;2.50;;;1.40;;
57337;SDS011;43173;50.980;18.204;2023-07-13T13:07:23;2.00;;;1.30;;
57337;SDS011;43173;50.980;18.204;2023-07-13T13:09:49;1.70;;;1.30;;
57337;SDS011;43173;50.980;18.204;2023-07-13T13:12:15;2.50;;;1.10;;
57337;SDS011;43173;50.980;18.204;2023-07-13T13:14:42;1.30;;;1.20;;
57337;SDS011;43173;50.980;18.204;2023-07-13T13:17:18;2.60;;;1.50;;
57337;SDS011;43173;50.980;18.204;2023-07-13T13:19:48;1.50;;;1.30;;
57337;SDS011;43173;50.980;18.204;2023-07-13T13:22:15;2.50;;;1.40;;
57337;SDS011;43173;50.980;18.204;2023-07-13T13:24:40;2.10;;;1.40;;
57337;SDS011;43173;50.980;18.204;2023-07-13T13:27:09;2.00;;;1.50;;
57337;SDS011;43173;50.980;18.204;2023-07-13T13:29:45;2.10;;;1.30;;
57337;SDS011;43173;50.980;18.204;2023-07-13T13:32:11;1.50;;;1.30;;
57337;SDS011;43173;50.980;18.204;2023-07-13T13:34:38;1.60;;;1.30;;
57337;SDS011;43173;50.980;18.204;2023-07-13T13:37:04;1.30;;;1.20;;
57337;SDS011;43173;50.980;18.204;2023-07-13T13:42:02;1.70;;;1.00;;
57337;SDS011;43173;50.980;18.204;2023-07-13T13:44:27;1.40;;;1.30;;
57337;SDS011;43173;50.980;18.204;2023-07-13T13:46:54;1.90;;;1.30;;
57337;SDS011;43173;50.980;18.204;2023-07-13T13:49:21;2.70;;;1.40;;
57337;SDS011;43173;50.980;18.204;2023-07-13T13:51:49;3.30;;;1.20;;
57337;SDS011;43173;50.980;18.204;2023-07-13T13:54:16;1.80;;;1.20;;
57337;SDS011;43173;50.980;18.204;2023-07-13T13:56:43;2.90;;;1.40;;
57337;SDS011;43173;50.980;18.204;2023-07-13T13:59:10;1.60;;;1.20;;
57337;SDS011;43173;50.980;18.204;2023-07-13T14:01:37;2.10;;;1.40;;
57337;SDS011;43173;50.980;18.204;2023-07-13T14:04:03;2.80;;;1.30;;
57337;SDS011;43173;50.980;18.204;2023-07-13T14:06:31;1.60;;;1.50;;
57337;SDS011;43173;50.980;18.204;2023-07-13T14:08:57;1.80;;;1.30;;
57337;SDS011;43173;50.980;18.204;2023-07-13T14:11:24;2.80;;;1.50;;
57337;SDS011;43173;50.980;18.204;2023-07-13T14:13:54;3.50;;;1.30;;
57337;SDS011;43173;50.980;18.204;2023-07-13T14:16:21;2.40;;;1.40;;
57337;SDS011;43173;50.980;18.204;2023-07-13T14:18:48;2.20;;;1.40;;
57337;SDS011;43173;50.980;18.204;2023-07-13T14:21:18;2.40;;;1.40;;
57337;SDS011;43173;50.980;18.204;2023-07-13T14:23:46;2.00;;;1.40;;
57337;SDS011;43173;50.980;18.204;2023-07-13T14:26:17;2.10;;;1.30;;
57337;SDS011;43173;50.980;18.204;2023-07-13T14:28:48;2.40;;;1.20;;
57337;SDS011;43173;50.980;18.204;2023-07-13T14:31:16;1.60;;;1.20;;
57337;SDS011;43173;50.980;18.204;2023-07-13T14:33:43;1.80;;;1.20;;
57337;SDS011;43173;50.980;18.204;2023-07-13T14:38:53;2.60;;;1.20;;
57337;SDS011;43173;50.980;18.204;2023-07-13T14:41:19;2.90;;;1.60;;
57337;SDS011;43173;50.980;18.204;2023-07-13T14:43:46;2.40;;;1.40;;
57337;SDS011;43173;50.980;18.204;2023-07-13T14:48:59;1.70;;;1.60;;
57337;SDS011;43173;50.980;18.204;2023-07-13T14:51:27;2.50;;;1.30;;
57337;SDS011;43173;50.980;18.204;2023-07-13T14:53:53;3.00;;;1.40;;
57337;SDS011;43173;50.980;18.204;2023-07-13T14:56:19;2.00;;;1.30;;
57337;SDS011;43173;50.980;18.204;2023-07-13T14:58:45;4.40;;;1.60;;
57337;SDS011;43173;50.980;18.204;2023-07-13T15:01:13;1.40;;;1.30;;
57337;SDS011;43173;50.980;18.204;2023-07-13T15:03:41;2.10;;;1.60;;
57337;SDS011;43173;50.980;18.204;2023-07-13T15:06:11;3.10;;;1.50;;
57337;SDS011;43173;50.980;18.204;2023-07-13T15:08:38;2.00;;;1.30;;
57337;SDS011;43173;50.980;18.204;2023-07-13T15:11:08;2.00;;;1.40;;
57337;SDS011;43173;50.980;18.204;2023-07-13T15:13:40;2.30;;;1.50;;
57337;SDS011;43173;50.980;18.204;2023-07-13T15:16:17;1.30;;;1.10;;
57337;SDS011;43173;50.980;18.204;2023-07-13T15:18:45;2.20;;;1.50;;
57337;SDS011;43173;50.980;18.204;2023-07-13T15:21:13;1.60;;;1.40;;
57337;SDS011;43173;50.980;18.204;2023-07-13T15:23:43;1.90;;;1.30;;
57337;SDS011;43173;50.980;18.204;2023-07-13T15:27:26;2.50;;;1.40;;
57337;SDS011;43173;50.980;18.204;2023-07-13T15:29:52;5.20;;;1.50;;
57337;SDS011;43173;50.980;18.204;2023-07-13T15:32:18;3.50;;;1.30;;
57337;SDS011;43173;50.980;18.204;2023-07-13T15:34:44;2.80;;;1.40;;
57337;SDS011;43173;50.980;18.204;2023-07-13T15:37:15;1.60;;;1.30;;
57337;SDS011;43173;50.980;18.204;2023-07-13T15:39:41;4.10;;;1.60;;
57337;SDS011;43173;50.980;18.204;2023-07-13T15:44:48;1.60;;;1.20;;
57337;SDS011;43173;50.980;18.204;2023-07-13T15:47:14;2.20;;;1.40;;
57337;SDS011;43173;50.980;18.204;2023-07-13T15:49:41;2.70;;;1.50;;
57337;SDS011;43173;50.980;18.204;2023-07-13T15:54:50;3.40;;;1.80;;
57337;SDS011;43173;50.980;18.204;2023-07-13T15:57:16;2.70;;;1.60;;
57337;SDS011;43173;50.980;18.204;2023-07-13T15:59:42;3.90;;;1.70;;
57337;SDS011;43173;50.980;18.204;2023-07-13T16:02:11;2.00;;;1.40;;
57337;SDS011;43173;50.980;18.204;2023-07-13T16:04:41;1.60;;;1.40;;
57337;SDS011;43173;50.980;18.204;2023-07-13T16:07:11;2.50;;;1.70;;
57337;SDS011;43173;50.980;18.204;2023-07-13T16:09:38;3.40;;;1.60;;
57337;SDS011;43173;50.980;18.204;2023-07-13T16:12:13;2.20;;;1.80;;
57337;SDS011;43173;50.980;18.204;2023-07-13T16:14:40;3.00;;;1.70;;
57337;SDS011;43173;50.980;18.204;2023-07-13T16:17:12;2.10;;;1.50;;